KSSC/SSC METAR and TAF weather

Enter ICAO airport designator
Station Type Date Time Source
KSSC METAR 2020/11/27 02:26 UTC NOAA

KSSC 270226Z AUTO 00000KT 5/8SM R04/3000V6000FT BR FEW000 16/15 A3008 RMK AO2 SLP187 $


Station Type Date Time Source
KSSC Decoded METAR 2020/11/27 02:26 UTC NOAA

Shaw Air Force Base, SC, United States (KSSC) 33-58N 080-29W 73M
Nov 26, 2020 - 09:26 PM EST / 2020.11.27 0226 UTC
Wind: Calm (direction variable):0
Visibility: 5/8 mile(s):0
Sky conditions: mostly clear
Weather: mist
Temperature: 60 F (16 C)
Dew Point: 59 F (15 C)
Relative Humidity: 93%
Pressure (altimeter): 30.08 in. Hg (1018 hPa)
ob: KSSC 270226Z AUTO 00000KT 5/8SM R04/3000V6000FT BR FEW000 16/15 A3008 RMK AO2 SLP187
cycle: 2

Station Type Date Time Source
KSSC TAF 2020/11/26 00:03 UTC NOAA

TAF KSSC 260000Z 2600/2706 16009KT 9999 SCT030 BKN055 BKN080 QNH3010INS
BECMG 2610/2611 20009KT 9999 BKN020 OVC040 QNH3007INS
TEMPO 2615/2619 23010G15KT 8000 -SHRA SCT010 BKN020 OVC040
BECMG 2703/2704 23006KT 6000 BR BKN010 OVC025 QNH3007INS TX22/2620Z TN15/2611Z LAST NO
AMDS AFT 2600 NEXT 2808

Example: see airport list